createdAt,value
2019-03-20T00:02:45.739Z,71.4
2019-03-20T00:07:46.634Z,71.4
2019-03-20T00:12:27.762Z,71.4
2019-03-20T00:17:28.962Z,71.3
2019-03-20T00:22:27.860Z,71.3
2019-03-20T00:27:28.746Z,71.2
2019-03-20T00:32:28.283Z,71.2
2019-03-20T00:37:29.233Z,71.2
2019-03-20T00:42:28.028Z,71.3
2019-03-20T00:47:28.219Z,71.2
2019-03-20T00:52:28.231Z,71.2
2019-03-20T00:57:28.029Z,71.2
2019-03-20T01:02:28.486Z,71.1
2019-03-20T01:07:29.038Z,71.2
2019-03-20T01:12:28.306Z,71.0
2019-03-20T01:17:28.495Z,71.0
2019-03-20T01:22:28.125Z,71.1
2019-03-20T01:27:28.456Z,71.1
2019-03-20T01:32:28.091Z,71.2
2019-03-20T01:37:28.206Z,71.1
2019-03-20T01:42:27.504Z,71.0
2019-03-20T01:47:28.143Z,70.9
2019-03-20T01:52:28.234Z,70.9
2019-03-20T01:57:28.308Z,70.9
2019-03-20T02:02:27.881Z,71.0
2019-03-20T02:07:28.670Z,70.9
2019-03-20T02:12:27.711Z,70.8
2019-03-20T02:17:28.124Z,71.0
2019-03-20T02:22:28.140Z,71.0
2019-03-20T02:27:28.683Z,71.0
2019-03-20T02:32:27.440Z,70.9
2019-03-20T02:37:29.170Z,70.7
2019-03-20T02:42:28.673Z,70.7
2019-03-20T02:47:28.060Z,70.7
2019-03-20T02:52:28.408Z,70.7
2019-03-20T02:57:28.283Z,70.8
2019-03-20T03:02:28.103Z,70.8
2019-03-20T03:07:28.967Z,70.5
2019-03-20T03:12:27.909Z,70.5
2019-03-20T03:17:28.758Z,70.5
2019-03-20T03:22:28.591Z,70.4
2019-03-20T03:27:28.261Z,70.4
2019-03-20T03:32:28.488Z,70.6
2019-03-20T03:37:29.136Z,70.5
2019-03-20T03:42:27.941Z,70.4
2019-03-20T03:47:28.205Z,70.4
2019-03-20T03:52:27.665Z,70.5
2019-03-20T03:57:28.331Z,70.7
2019-03-20T04:02:28.162Z,70.6
2019-03-20T04:07:29.157Z,70.5
2019-03-20T04:12:27.818Z,70.4
2019-03-20T04:17:28.731Z,70.5
2019-03-20T04:22:28.177Z,70.4
2019-03-20T04:27:28.398Z,70.4
2019-03-20T04:32:29.888Z,70.5
2019-03-20T04:37:28.792Z,70.4
2019-03-20T04:42:28.827Z,70.2
2019-03-20T04:47:28.401Z,70.2
2019-03-20T04:52:28.203Z,70.3
2019-03-20T04:57:29.325Z,70.3
2019-03-20T05:02:27.948Z,70.2
2019-03-20T05:07:28.861Z,70.3
2019-03-20T05:12:28.551Z,70.3
2019-03-20T05:17:29.776Z,70.4
2019-03-20T05:22:28.315Z,70.3
2019-03-20T05:27:28.827Z,70.3
2019-03-20T05:32:28.689Z,70.4
2019-03-20T05:37:29.256Z,70.2
2019-03-20T05:42:29.245Z,70.2
2019-03-20T05:47:28.649Z,70.2
2019-03-20T05:52:28.397Z,70.1
2019-03-20T05:57:28.729Z,69.9
2019-03-20T06:02:27.839Z,69.8
2019-03-20T06:07:29.426Z,69.4
2019-03-20T06:12:28.286Z,69.4
2019-03-20T06:17:29.674Z,69.0
2019-03-20T06:22:28.470Z,69.0
2019-03-20T06:27:28.268Z,69.0
2019-03-20T06:32:28.315Z,68.7
2019-03-20T06:37:33.135Z,68.4
2019-03-20T06:42:28.425Z,68.7
2019-03-20T06:47:29.006Z,68.6
2019-03-20T06:52:29.100Z,68.7
2019-03-20T06:57:27.949Z,68.8
2019-03-20T07:02:28.946Z,68.7
2019-03-20T07:07:28.885Z,68.7
2019-03-20T07:12:29.139Z,68.8
2019-03-20T07:17:29.202Z,68.9
2019-03-20T07:22:29.060Z,68.9
2019-03-20T07:27:29.385Z,68.9
2019-03-20T07:32:30.756Z,68.8
2019-03-20T07:37:29.177Z,68.8
2019-03-20T07:42:29.080Z,68.9
2019-03-20T07:47:28.797Z,69.0
2019-03-20T07:52:28.920Z,69.2
2019-03-20T07:57:28.534Z,69.2
2019-03-20T08:02:28.576Z,69.3
2019-03-20T08:07:29.429Z,69.7
2019-03-20T08:12:28.609Z,69.6
2019-03-20T08:17:29.060Z,70.0
2019-03-20T08:22:28.369Z,70.0
2019-03-20T08:27:28.383Z,70.3
2019-03-20T08:32:29.118Z,70.6
2019-03-20T08:37:28.530Z,70.5
2019-03-20T08:42:44.562Z,70.7
2019-03-20T08:47:28.751Z,71.0
2019-03-20T08:52:28.596Z,71.3
2019-03-20T08:57:45.642Z,71.6
2019-03-20T09:02:28.726Z,71.6
2019-03-20T09:07:29.324Z,72.1
2019-03-20T09:12:29.187Z,72.4
2019-03-20T09:17:28.993Z,72.4
2019-03-20T09:22:29.233Z,72.7
2019-03-20T09:27:29.104Z,72.9
2019-03-20T09:32:29.241Z,73.2
2019-03-20T09:37:29.152Z,73.5
2019-03-20T09:42:29.083Z,73.6
2019-03-20T09:47:28.527Z,73.6
2019-03-20T09:52:27.962Z,74.1
2019-03-20T09:57:29.120Z,73.9
2019-03-20T10:02:28.734Z,74.2
2019-03-20T10:07:28.518Z,74.6
2019-03-20T10:12:28.159Z,74.9
2019-03-20T10:17:28.684Z,75.1
2019-03-20T10:22:28.855Z,75.1
2019-03-20T10:27:28.764Z,75.3
2019-03-20T10:32:28.787Z,75.4
2019-03-20T10:37:28.894Z,75.1
2019-03-20T10:42:28.971Z,75.6
2019-03-20T10:47:30.613Z,75.8
2019-03-20T10:52:29.658Z,75.7
2019-03-20T10:57:29.039Z,76.0
2019-03-20T11:02:28.952Z,76.1
2019-03-20T11:07:28.899Z,76.2
2019-03-20T11:12:28.609Z,75.2
2019-03-20T11:17:29.177Z,76.8
2019-03-20T11:22:29.008Z,76.7
2019-03-20T11:27:28.836Z,76.5
2019-03-20T11:32:28.928Z,76.5
2019-03-20T11:37:28.480Z,77.0
2019-03-20T11:42:29.192Z,77.0
2019-03-20T11:47:29.634Z,76.7
2019-03-20T11:52:28.317Z,75.8
2019-03-20T11:57:28.946Z,76.9
2019-03-20T12:02:29.347Z,76.9
2019-03-20T12:07:28.978Z,76.6
2019-03-20T12:12:29.499Z,76.8
2019-03-20T12:17:28.369Z,76.8
2019-03-20T12:22:29.216Z,76.8
2019-03-20T12:27:29.300Z,77.4
2019-03-20T12:32:28.639Z,77.0
2019-03-20T12:37:28.683Z,77.1
2019-03-20T12:42:28.986Z,77.6
2019-03-20T12:47:29.197Z,77.6
2019-03-20T12:52:29.217Z,77.8
2019-03-20T12:57:28.501Z,77.8
2019-03-20T13:02:29.033Z,78.1
2019-03-20T13:07:29.911Z,78.5
2019-03-20T13:12:28.422Z,78.4
2019-03-20T13:17:29.190Z,78.3
2019-03-20T13:22:28.734Z,78.7
2019-03-20T13:27:28.275Z,78.6
2019-03-20T13:32:29.661Z,79.3
2019-03-20T13:37:28.104Z,79.2
2019-03-20T13:42:28.843Z,79.5
2019-03-20T13:47:28.821Z,79.3
2019-03-20T13:52:29.318Z,80.1
2019-03-20T13:57:28.874Z,80.2
2019-03-20T14:02:28.956Z,80.2
2019-03-20T14:07:28.558Z,80.0
2019-03-20T14:12:28.680Z,80.0
2019-03-20T14:17:29.780Z,79.8
2019-03-20T14:22:28.991Z,79.5
2019-03-20T14:27:29.600Z,78.0
2019-03-20T14:32:28.874Z,76.4
2019-03-20T14:37:28.469Z,73.5
2019-03-20T14:42:28.927Z,72.1
2019-03-20T14:47:29.762Z,67.2
2019-03-20T14:52:28.508Z,67.1
2019-03-20T14:57:28.761Z,65.3
2019-03-20T15:02:27.850Z,62.3
2019-03-20T15:07:28.681Z,61.4
2019-03-20T15:12:28.090Z,60.8
2019-03-20T15:17:29.727Z,59.9
2019-03-20T15:22:28.403Z,59.9
2019-03-20T15:27:28.410Z,59.6
2019-03-20T15:32:29.420Z,58.6
2019-03-20T15:37:28.593Z,58.1
2019-03-20T15:42:28.622Z,57.4
2019-03-20T15:47:29.779Z,57.4
2019-03-20T15:52:28.946Z,56.7
2019-03-20T15:57:28.711Z,57.1
2019-03-20T16:02:30.987Z,57.3
2019-03-20T16:07:28.880Z,57.3
2019-03-20T16:12:29.681Z,56.8
2019-03-20T16:17:28.866Z,55.1
2019-03-20T16:22:29.674Z,56.9
2019-03-20T16:27:29.204Z,55.5
2019-03-20T16:32:29.984Z,57.2
2019-03-20T16:37:28.882Z,56.7
2019-03-20T16:42:29.036Z,56.9
2019-03-20T16:47:30.095Z,57.4
2019-03-20T16:52:28.780Z,58.0
2019-03-20T16:57:29.025Z,58.0
2019-03-20T17:02:28.843Z,59.1
2019-03-20T17:07:29.278Z,59.7
2019-03-20T17:12:28.561Z,61.8
2019-03-20T17:17:29.379Z,62.7
2019-03-20T17:22:28.730Z,65.5
2019-03-20T17:27:28.896Z,65.5
2019-03-20T17:32:28.477Z,67.7
2019-03-20T17:37:28.793Z,70.5
2019-03-20T17:42:28.917Z,72.3
2019-03-20T17:47:29.257Z,73.4
2019-03-20T17:52:28.286Z,73.8
2019-03-20T17:57:29.076Z,74.2
2019-03-20T18:02:29.757Z,74.2
2019-03-20T18:07:29.339Z,74.3
2019-03-20T18:12:27.924Z,74.2
2019-03-20T18:17:28.724Z,74.0
2019-03-20T18:22:28.701Z,74.0
2019-03-20T18:27:28.043Z,73.9
2019-03-20T18:32:28.504Z,73.9
2019-03-20T18:37:28.487Z,73.9
2019-03-20T18:42:28.480Z,73.8
2019-03-20T18:47:27.837Z,73.7
2019-03-20T18:52:29.066Z,73.7
2019-03-20T18:57:27.776Z,73.8
2019-03-20T19:02:30.593Z,73.8
2019-03-20T19:07:27.955Z,73.8
2019-03-20T19:12:28.541Z,73.7
2019-03-20T19:17:28.859Z,73.6
2019-03-20T19:22:28.562Z,73.5
2019-03-20T19:27:28.243Z,73.5
2019-03-20T19:32:28.168Z,73.4
2019-03-20T19:37:27.527Z,73.3
2019-03-20T19:42:28.818Z,73.4
2019-03-20T19:47:29.152Z,73.3
2019-03-20T19:52:28.439Z,73.0
2019-03-20T19:57:28.813Z,73.0
2019-03-20T20:02:28.175Z,73.0
2019-03-20T20:07:28.188Z,72.8
2019-03-20T20:12:31.924Z,72.8
2019-03-20T20:17:28.411Z,72.7
2019-03-20T20:22:28.411Z,72.6
2019-03-20T20:27:28.213Z,72.5
2019-03-20T20:32:28.471Z,72.3
2019-03-20T20:37:28.992Z,72.4
2019-03-20T20:42:28.429Z,72.4
2019-03-20T20:47:28.248Z,71.6
2019-03-20T20:52:28.578Z,71.6
2019-03-20T20:57:28.270Z,71.6
2019-03-20T21:02:28.465Z,71.5
2019-03-20T21:07:28.079Z,71.3
2019-03-20T21:12:27.847Z,71.4
2019-03-20T21:17:28.460Z,71.4
2019-03-20T21:22:28.422Z,71.2
2019-03-20T21:27:29.040Z,71.4
2019-03-20T21:32:28.792Z,71.3
2019-03-20T21:37:28.494Z,71.3
2019-03-20T21:42:28.942Z,71.3
2019-03-20T21:47:28.883Z,71.1
2019-03-20T21:52:28.265Z,71.1
2019-03-20T21:57:30.035Z,71.0
2019-03-20T22:02:28.646Z,70.9
2019-03-20T22:07:28.137Z,70.9
2019-03-20T22:12:28.328Z,70.9
2019-03-20T22:17:28.642Z,70.7
2019-03-20T22:22:28.842Z,70.8
2019-03-20T22:27:28.540Z,70.6
2019-03-20T22:32:27.988Z,70.6
2019-03-20T22:37:28.744Z,70.6
2019-03-20T22:42:27.682Z,70.4
2019-03-20T22:47:28.091Z,70.5
2019-03-20T22:52:28.071Z,70.4
2019-03-20T22:57:27.879Z,70.4
2019-03-20T23:02:28.361Z,70.4
2019-03-20T23:07:28.804Z,70.2
2019-03-20T23:12:28.980Z,70.2
2019-03-20T23:22:48.642Z,70.3
2019-03-20T23:27:46.556Z,69.9
2019-03-20T23:32:47.833Z,70.0
2019-03-20T23:37:46.899Z,69.9
2019-03-20T23:42:47.901Z,69.9
2019-03-20T23:47:47.476Z,70.0
2019-03-20T23:52:47.106Z,69.7
2019-03-20T23:57:46.528Z,69.8
